SWA3271 KMIA-KMCO
Flight info
| Callsign | SWA3271 |
|---|---|
| Flight time | 0h 49m |
| Altitude | 20000 |
| Route | FLMGO2 WAPOM MUNGI1 |
| Aircraft | B738/M-SADE2E3GIJ4RWZ/LB1D1 |
Departure
| Time | 2026-04-20 16:28 |
|---|---|
| Airport | Miami International Airport (KMIA) |
Arrival
| Time | 2026-04-20 17:17 |
|---|---|
| Airport | Orlando International Airport (KMCO) |
| Time | Latitude | Longitude | Altitude | Speed | Heading |
|---|---|---|---|---|---|
| 2026-04-20 15:56 | 25.79192 | -80.27934 | 15 ft | 0 kts | 145° |
| 2026-04-20 16:17 | 25.79196 | -80.27937 | 14 ft | 4 kts | 145° |
| 2026-04-20 16:17 | 25.79217 | -80.27953 | 14 ft | 4 kts | 146° |
| 2026-04-20 16:17 | 25.79240 | -80.27963 | 15 ft | 4 kts | 191° |
| 2026-04-20 16:17 | 25.79262 | -80.27951 | 14 ft | 2 kts | 223° |
| 2026-04-20 16:18 | 25.79263 | -80.27949 | 14 ft | 1 kts | 223° |
| 2026-04-20 16:22 | 25.79262 | -80.27951 | 14 ft | 1 kts | 223° |
| 2026-04-20 16:22 | 25.79241 | -80.27973 | 15 ft | 8 kts | 224° |
| 2026-04-20 16:23 | 25.79178 | -80.28022 | 14 ft | 15 kts | 205° |
| 2026-04-20 16:23 | 25.79076 | -80.28082 | 14 ft | 18 kts | 221° |
| 2026-04-20 16:23 | 25.79076 | -80.28202 | 15 ft | 17 kts | 300° |
| 2026-04-20 16:23 | 25.79142 | -80.28318 | 14 ft | 19 kts | 298° |
| 2026-04-20 16:24 | 25.79228 | -80.28431 | 15 ft | 13 kts | 309° |
| 2026-04-20 16:24 | 25.79256 | -80.28483 | 14 ft | 9 kts | 300° |
| 2026-04-20 16:24 | 25.79295 | -80.28560 | 14 ft | 14 kts | 300° |
| 2026-04-20 16:24 | 25.79352 | -80.28671 | 14 ft | 18 kts | 300° |
| 2026-04-20 16:25 | 25.79416 | -80.28796 | 14 ft | 19 kts | 300° |
| 2026-04-20 16:25 | 25.79481 | -80.28923 | 14 ft | 19 kts | 300° |
| 2026-04-20 16:25 | 25.79548 | -80.29054 | 14 ft | 20 kts | 299° |
| 2026-04-20 16:25 | 25.79616 | -80.29188 | 15 ft | 20 kts | 300° |
| 2026-04-20 16:26 | 25.79682 | -80.29318 | 14 ft | 19 kts | 300° |
| 2026-04-20 16:26 | 25.79747 | -80.29442 | 14 ft | 18 kts | 300° |
| 2026-04-20 16:26 | 25.79809 | -80.29564 | 14 ft | 18 kts | 300° |
| 2026-04-20 16:26 | 25.79875 | -80.29694 | 14 ft | 20 kts | 299° |
| 2026-04-20 16:27 | 25.79935 | -80.29835 | 13 ft | 20 kts | 294° |
| 2026-04-20 16:27 | 25.79980 | -80.29977 | 12 ft | 19 kts | 286° |
| 2026-04-20 16:27 | 25.80018 | -80.30116 | 13 ft | 18 kts | 303° |
| 2026-04-20 16:27 | 25.80076 | -80.30089 | 13 ft | 13 kts | 91° |
| 2026-04-20 16:28 | 25.80081 | -80.29971 | 12 ft | 26 kts | 86° |
| 2026-04-20 16:28 | 25.80099 | -80.29467 | 13 ft | 103 kts | 87° |
| 2026-04-20 16:28 | 25.80141 | -80.28425 | 36 ft | 163 kts | 87° |
| 2026-04-20 16:28 | 25.80197 | -80.27099 | 625 ft | 176 kts | 87° |
| 2026-04-20 16:29 | 25.80251 | -80.25728 | 1391 ft | 179 kts | 87° |
| 2026-04-20 16:29 | 25.80296 | -80.24366 | 2336 ft | 173 kts | 87° |
| 2026-04-20 16:29 | 25.80333 | -80.23018 | 3095 ft | 181 kts | 86° |
| 2026-04-20 16:29 | 25.80407 | -80.21567 | 3657 ft | 198 kts | 85° |
| 2026-04-20 16:30 | 25.80484 | -80.19984 | 4184 ft | 212 kts | 86° |
| 2026-04-20 16:30 | 25.80569 | -80.18334 | 4773 ft | 216 kts | 81° |
| 2026-04-20 16:30 | 25.81188 | -80.16828 | 5355 ft | 219 kts | 44° |
| 2026-04-20 16:30 | 25.82509 | -80.16012 | 5946 ft | 225 kts | 9° |
| 2026-04-20 16:31 | 25.84091 | -80.15890 | 6613 ft | 232 kts | 0° |
| 2026-04-20 16:31 | 25.85748 | -80.15842 | 7227 ft | 243 kts | 360° |
| 2026-04-20 16:31 | 25.87473 | -80.15790 | 7861 ft | 253 kts | 0° |
| 2026-04-20 16:31 | 25.89271 | -80.15752 | 8491 ft | 263 kts | 355° |
| 2026-04-20 16:32 | 25.91078 | -80.16218 | 9192 ft | 273 kts | 339° |
| 2026-04-20 16:32 | 25.92945 | -80.16929 | 9877 ft | 293 kts | 340° |
| 2026-04-20 16:32 | 25.94914 | -80.17642 | 10408 ft | 307 kts | 340° |
| 2026-04-20 16:32 | 25.96967 | -80.18367 | 11004 ft | 311 kts | 340° |
| 2026-04-20 16:33 | 25.98977 | -80.19215 | 11577 ft | 310 kts | 327° |
| 2026-04-20 16:33 | 26.00657 | -80.20694 | 12209 ft | 307 kts | 316° |
| 2026-04-20 16:33 | 26.02239 | -80.22289 | 12826 ft | 308 kts | 315° |
| 2026-04-20 16:33 | 26.03823 | -80.23896 | 13460 ft | 308 kts | 315° |
| 2026-04-20 16:34 | 26.05417 | -80.25506 | 14086 ft | 309 kts | 315° |
| 2026-04-20 16:34 | 26.07017 | -80.27112 | 14659 ft | 310 kts | 315° |
| 2026-04-20 16:34 | 26.08623 | -80.28717 | 15244 ft | 312 kts | 315° |
| 2026-04-20 16:34 | 26.10246 | -80.30335 | 15837 ft | 314 kts | 315° |
| 2026-04-20 16:35 | 26.11880 | -80.31962 | 16452 ft | 315 kts | 315° |
| 2026-04-20 16:35 | 26.13522 | -80.33596 | 17068 ft | 318 kts | 315° |
| 2026-04-20 16:35 | 26.15199 | -80.35266 | 17462 ft | 328 kts | 315° |
| 2026-04-20 16:35 | 26.16931 | -80.36990 | 17844 ft | 340 kts | 315° |
| 2026-04-20 16:36 | 26.18720 | -80.38772 | 18228 ft | 350 kts | 315° |
| 2026-04-20 16:36 | 26.20535 | -80.40579 | 18571 ft | 359 kts | 315° |
| 2026-04-20 16:36 | 26.22428 | -80.42445 | 18894 ft | 368 kts | 317° |
| 2026-04-20 16:36 | 26.24646 | -80.43949 | 19226 ft | 381 kts | 330° |
| 2026-04-20 16:37 | 26.27070 | -80.45201 | 19559 ft | 387 kts | 331° |
| 2026-04-20 16:37 | 26.29542 | -80.46469 | 19894 ft | 393 kts | 331° |
| 2026-04-20 16:37 | 26.32042 | -80.47764 | 20109 ft | 401 kts | 331° |
| 2026-04-20 16:37 | 26.34585 | -80.49097 | 20106 ft | 406 kts | 330° |
| 2026-04-20 16:38 | 26.37144 | -80.50449 | 20111 ft | 406 kts | 330° |
| 2026-04-20 16:38 | 26.39695 | -80.51804 | 20114 ft | 406 kts | 330° |
| 2026-04-20 16:38 | 26.42247 | -80.53162 | 20116 ft | 406 kts | 330° |
| 2026-04-20 16:38 | 26.44794 | -80.54519 | 20121 ft | 406 kts | 330° |
| 2026-04-20 16:39 | 26.47343 | -80.55878 | 20122 ft | 406 kts | 330° |
| 2026-04-20 16:39 | 26.49917 | -80.57108 | 20122 ft | 409 kts | 336° |
| 2026-04-20 16:39 | 26.52641 | -80.58051 | 20127 ft | 411 kts | 340° |
| 2026-04-20 16:39 | 26.55405 | -80.58874 | 20126 ft | 411 kts | 341° |
| 2026-04-20 16:40 | 26.58176 | -80.59674 | 20143 ft | 411 kts | 340° |
| 2026-04-20 16:40 | 26.60948 | -80.60491 | 20136 ft | 411 kts | 340° |
| 2026-04-20 16:40 | 26.63699 | -80.61326 | 20128 ft | 410 kts | 340° |
| 2026-04-20 16:40 | 26.65522 | -80.61892 | 20117 ft | 410 kts | 340° |
| 2026-04-20 16:41 | 26.68266 | -80.62754 | 20132 ft | 409 kts | 339° |
| 2026-04-20 16:41 | 26.71005 | -80.63624 | 20136 ft | 409 kts | 339° |
| 2026-04-20 16:41 | 26.73742 | -80.64497 | 20134 ft | 409 kts | 339° |
| 2026-04-20 16:41 | 26.76478 | -80.65370 | 20126 ft | 409 kts | 339° |
| 2026-04-20 16:42 | 26.79214 | -80.66243 | 20135 ft | 409 kts | 339° |
| 2026-04-20 16:42 | 26.81955 | -80.67118 | 20139 ft | 409 kts | 339° |
| 2026-04-20 16:42 | 26.84686 | -80.67990 | 20132 ft | 409 kts | 339° |
| 2026-04-20 16:42 | 26.87424 | -80.68864 | 20164 ft | 409 kts | 339° |
| 2026-04-20 16:43 | 26.90162 | -80.69738 | 20146 ft | 409 kts | 339° |
| 2026-04-20 16:43 | 26.92891 | -80.70638 | 20149 ft | 408 kts | 337° |
| 2026-04-20 16:43 | 26.95584 | -80.71630 | 20147 ft | 407 kts | 336° |
| 2026-04-20 16:43 | 26.98260 | -80.72663 | 20150 ft | 406 kts | 336° |
| 2026-04-20 16:44 | 27.00932 | -80.73701 | 20150 ft | 406 kts | 336° |
| 2026-04-20 16:44 | 27.03606 | -80.74735 | 20151 ft | 407 kts | 336° |
| 2026-04-20 16:44 | 27.06286 | -80.75763 | 20158 ft | 407 kts | 336° |
| 2026-04-20 16:44 | 27.08973 | -80.76787 | 20151 ft | 408 kts | 336° |
| 2026-04-20 16:45 | 27.11663 | -80.77807 | 20150 ft | 408 kts | 336° |
| 2026-04-20 16:45 | 27.14349 | -80.78825 | 20149 ft | 407 kts | 336° |
| 2026-04-20 16:45 | 27.17033 | -80.79841 | 20151 ft | 406 kts | 336° |
| 2026-04-20 16:45 | 27.19710 | -80.80855 | 20168 ft | 406 kts | 336° |
| 2026-04-20 16:46 | 27.20808 | -80.81272 | 20167 ft | 406 kts | 336° |
| 2026-04-20 17:01 | 27.23488 | -80.82289 | 20170 ft | 407 kts | 336° |
| 2026-04-20 17:01 | 27.26166 | -80.83306 | 20146 ft | 407 kts | 336° |
| 2026-04-20 17:01 | 27.28849 | -80.84325 | 20147 ft | 407 kts | 336° |
| 2026-04-20 17:01 | 27.31534 | -80.85345 | 20033 ft | 407 kts | 336° |
| 2026-04-20 17:02 | 27.34248 | -80.86306 | 19471 ft | 410 kts | 339° |
| 2026-04-20 17:02 | 27.36990 | -80.87143 | 18936 ft | 406 kts | 340° |
| 2026-04-20 17:02 | 27.39717 | -80.87925 | 18420 ft | 403 kts | 341° |
| 2026-04-20 17:02 | 27.42418 | -80.88691 | 17828 ft | 399 kts | 341° |
| 2026-04-20 17:03 | 27.45089 | -80.89457 | 17256 ft | 393 kts | 341° |
| 2026-04-20 17:03 | 27.47721 | -80.90222 | 16707 ft | 388 kts | 341° |
| 2026-04-20 17:03 | 27.50321 | -80.90987 | 16165 ft | 384 kts | 341° |
| 2026-04-20 17:03 | 27.52885 | -80.91747 | 15637 ft | 380 kts | 342° |
| 2026-04-20 17:04 | 27.55396 | -80.92494 | 15128 ft | 376 kts | 342° |
| 2026-04-20 17:04 | 27.57944 | -80.93254 | 14614 ft | 373 kts | 342° |
| 2026-04-20 17:04 | 27.60442 | -80.94001 | 14103 ft | 370 kts | 343° |
| 2026-04-20 17:04 | 27.62882 | -80.94730 | 13632 ft | 364 kts | 343° |
| 2026-04-20 17:05 | 27.65316 | -80.95457 | 13178 ft | 359 kts | 343° |
| 2026-04-20 17:05 | 27.67725 | -80.96176 | 12720 ft | 355 kts | 343° |
| 2026-04-20 17:05 | 27.70102 | -80.96888 | 12287 ft | 352 kts | 343° |
| 2026-04-20 17:05 | 27.72459 | -80.97593 | 11819 ft | 349 kts | 343° |
| 2026-04-20 17:06 | 27.74791 | -80.98291 | 11374 ft | 345 kts | 344° |
| 2026-04-20 17:06 | 27.77097 | -80.98982 | 10950 ft | 341 kts | 344° |
| 2026-04-20 17:06 | 27.79379 | -80.99665 | 10537 ft | 338 kts | 344° |
| 2026-04-20 17:06 | 27.81644 | -81.00344 | 10114 ft | 336 kts | 344° |
| 2026-04-20 17:07 | 27.83894 | -81.01019 | 9667 ft | 334 kts | 344° |
| 2026-04-20 17:07 | 27.86132 | -81.01690 | 9200 ft | 332 kts | 344° |
| 2026-04-20 17:07 | 27.88357 | -81.02358 | 8741 ft | 330 kts | 344° |
| 2026-04-20 17:07 | 27.90566 | -81.03021 | 8292 ft | 327 kts | 344° |
| 2026-04-20 17:08 | 27.92760 | -81.03680 | 7877 ft | 326 kts | 345° |
| 2026-04-20 17:08 | 27.94930 | -81.04403 | 7451 ft | 325 kts | 340° |
| 2026-04-20 17:08 | 27.97047 | -81.05300 | 7010 ft | 325 kts | 338° |
| 2026-04-20 17:08 | 27.99134 | -81.06230 | 6724 ft | 318 kts | 338° |
| 2026-04-20 17:09 | 28.01148 | -81.07118 | 6468 ft | 311 kts | 339° |
| 2026-04-20 17:09 | 28.03148 | -81.07981 | 6192 ft | 304 kts | 339° |
| 2026-04-20 17:09 | 28.05111 | -81.08817 | 5918 ft | 299 kts | 339° |
| 2026-04-20 17:09 | 28.07046 | -81.09638 | 5647 ft | 294 kts | 339° |
| 2026-04-20 17:10 | 28.08944 | -81.10439 | 5364 ft | 290 kts | 340° |
| 2026-04-20 17:10 | 28.10822 | -81.11224 | 5093 ft | 285 kts | 340° |
| 2026-04-20 17:10 | 28.12674 | -81.11997 | 4833 ft | 282 kts | 341° |
| 2026-04-20 17:10 | 28.14503 | -81.12762 | 4558 ft | 278 kts | 341° |
| 2026-04-20 17:11 | 28.16245 | -81.13699 | 4223 ft | 280 kts | 324° |
| 2026-04-20 17:11 | 28.17499 | -81.15413 | 3946 ft | 287 kts | 305° |
| 2026-04-20 17:11 | 28.18509 | -81.17374 | 3580 ft | 290 kts | 304° |
| 2026-04-20 17:11 | 28.19511 | -81.19366 | 3242 ft | 291 kts | 304° |
| 2026-04-20 17:12 | 28.20510 | -81.21371 | 3024 ft | 292 kts | 304° |
| 2026-04-20 17:12 | 28.21493 | -81.23347 | 2962 ft | 281 kts | 306° |
| 2026-04-20 17:12 | 28.22449 | -81.25205 | 2988 ft | 263 kts | 305° |
| 2026-04-20 17:12 | 28.23359 | -81.26893 | 2972 ft | 237 kts | 316° |
| 2026-04-20 17:13 | 28.24622 | -81.27775 | 2979 ft | 199 kts | 354° |
| 2026-04-20 17:13 | 28.25924 | -81.27920 | 2978 ft | 181 kts | 359° |
| 2026-04-20 17:13 | 28.27156 | -81.28023 | 2978 ft | 173 kts | 1° |
| 2026-04-20 17:13 | 28.28286 | -81.28071 | 2959 ft | 156 kts | 3° |
| 2026-04-20 17:14 | 28.29339 | -81.28096 | 2779 ft | 151 kts | 3° |
| 2026-04-20 17:14 | 28.30392 | -81.28111 | 2540 ft | 153 kts | 4° |
| 2026-04-20 17:14 | 28.31468 | -81.28125 | 2319 ft | 151 kts | 5° |
| 2026-04-20 17:14 | 28.32492 | -81.28137 | 2065 ft | 147 kts | 4° |
| 2026-04-20 17:15 | 28.33504 | -81.28148 | 1801 ft | 142 kts | 3° |
| 2026-04-20 17:15 | 28.34533 | -81.28157 | 1617 ft | 156 kts | 4° |
| 2026-04-20 17:15 | 28.35639 | -81.28168 | 1433 ft | 160 kts | 3° |
| 2026-04-20 17:15 | 28.36703 | -81.28205 | 1377 ft | 149 kts | 3° |
| 2026-04-20 17:16 | 28.37722 | -81.28211 | 1158 ft | 144 kts | 7° |
| 2026-04-20 17:16 | 28.38711 | -81.28206 | 828 ft | 139 kts | 5° |
| 2026-04-20 17:16 | 28.39608 | -81.28233 | 594 ft | 122 kts | 7° |
| 2026-04-20 17:16 | 28.40439 | -81.28216 | 410 ft | 120 kts | 4° |
| 2026-04-20 17:17 | 28.41281 | -81.28227 | 208 ft | 119 kts | 0° |
| 2026-04-20 17:17 | 28.42095 | -81.28233 | 106 ft | 112 kts | 360° |
| 2026-04-20 17:17 | 28.42753 | -81.28241 | 97 ft | 73 kts | 359° |
| 2026-04-20 17:17 | 28.43138 | -81.28245 | 93 ft | 48 kts | 359° |
| 2026-04-20 17:18 | 28.43456 | -81.28248 | 96 ft | 44 kts | 359° |
| 2026-04-20 17:18 | 28.43741 | -81.28255 | 98 ft | 35 kts | 352° |
| 2026-04-20 17:18 | 28.43876 | -81.28418 | 94 ft | 32 kts | 270° |
| 2026-04-20 17:18 | 28.43874 | -81.28668 | 101 ft | 31 kts | 270° |
| 2026-04-20 17:19 | 28.43871 | -81.28900 | 107 ft | 29 kts | 271° |
| 2026-04-20 17:19 | 28.43870 | -81.29118 | 104 ft | 27 kts | 269° |
| 2026-04-20 17:19 | 28.43797 | -81.29265 | 98 ft | 24 kts | 181° |
| 2026-04-20 17:19 | 28.43637 | -81.29262 | 98 ft | 23 kts | 179° |
| 2026-04-20 17:20 | 28.43554 | -81.29362 | 97 ft | 22 kts | 269° |
| 2026-04-20 17:20 | 28.43551 | -81.29532 | 99 ft | 21 kts | 269° |
| 2026-04-20 17:20 | 28.43551 | -81.29697 | 94 ft | 21 kts | 269° |
| 2026-04-20 17:20 | 28.43545 | -81.29859 | 94 ft | 20 kts | 250° |
| 2026-04-20 17:21 | 28.43432 | -81.29887 | 95 ft | 16 kts | 178° |
| 2026-04-20 17:21 | 28.43346 | -81.29889 | 94 ft | 12 kts | 192° |
| 2026-04-20 17:21 | 28.43304 | -81.29966 | 94 ft | 12 kts | 249° |
| 2026-04-20 17:21 | 28.43283 | -81.30053 | 94 ft | 10 kts | 275° |
| 2026-04-20 17:22 | 28.43323 | -81.30068 | 94 ft | 7 kts | 11° |
| 2026-04-20 17:22 | 28.43351 | -81.30062 | 96 ft | 2 kts | 12° |
| 2026-04-20 17:22 | 28.43355 | -81.30060 | 94 ft | 0 kts | 12° |